Time;durP1;ratioP1;P1;durP2;ratioP2;P2;SDS_P1;SDS_P2;PMS_P1;PMS_P2;Temp;Humidity;BMP_temperature;BMP_pressure;BME280_temperature;BME280_humidity;BME280_pressure;Samples;Min_cycle;Max_cycle;Signal;HPM_P1;HPM_P2
2022/08/08 00:01:00;;;;;;;2.93;1.87;;;15.20;99.90;;;;;;5102681;28;20216;-86
2022/08/08 00:03:37;;;;;;;2.87;2.10;;;15.10;99.90;;;;;;5101333;28;20259;-85
2022/08/08 00:06:12;;;;;;;2.10;1.90;;;15.10;99.90;;;;;;5100052;28;20523;-85
2022/08/08 00:08:45;;;;;;;3.27;2.13;;;15.10;99.90;;;;;;5101813;28;20310;-86
2022/08/08 00:11:17;;;;;;;2.93;2.03;;;15.10;99.90;;;;;;5104994;28;20296;-87
2022/08/08 00:14:01;;;;;;;2.40;2.13;;;15.10;99.90;;;;;;5102909;28;20200;-85
2022/08/08 00:16:39;;;;;;;3.10;2.27;;;15.10;99.90;;;;;;5104112;28;20311;-86
2022/08/08 00:19:12;;;;;;;2.00;1.80;;;15.10;99.90;;;;;;5096172;28;20576;-87
2022/08/08 00:21:44;;;;;;;2.47;2.00;;;15.10;99.90;;;;;;5093845;28;20266;-84
2022/08/08 00:24:16;;;;;;;3.60;2.17;;;15.10;99.90;;;;;;5094174;28;20215;-86
2022/08/08 00:26:54;;;;;;;2.60;2.40;;;15.10;99.90;;;;;;5095878;28;20231;-86
2022/08/08 00:29:27;;;;;;;1.97;1.77;;;15.10;99.90;;;;;;5093771;28;20206;-85
2022/08/08 00:32:01;;;;;;;2.97;2.10;;;15.10;99.90;;;;;;5094081;28;20206;-86
2022/08/08 00:35:14;;;;;;;4.23;2.20;;;15.10;99.90;;;;;;5094145;28;20251;-85
2022/08/08 00:37:57;;;;;;;3.27;2.33;;;15.10;99.90;;;;;;5093632;28;20259;-86
2022/08/08 00:40:50;;;;;;;2.23;2.03;;;15.10;99.90;;;;;;5092932;28;20257;-86
2022/08/08 00:43:56;;;;;;;3.10;2.13;;;15.10;99.90;;;;;;5097021;28;20177;-85
2022/08/08 00:47:12;;;;;;;4.50;3.00;;;15.10;99.90;;;;;;5087664;28;20284;-86
2022/08/08 00:50:06;;;;;;;3.27;2.63;;;15.10;99.90;;;;;;5064479;28;20623;-86
2022/08/08 00:52:58;;;;;;;4.03;3.10;;;15.10;99.90;;;;;;5078435;28;20204;-83
2022/08/08 00:56:00;;;;;;;3.63;3.10;;;15.10;99.90;;;;;;5094844;28;20579;-86
2022/08/08 00:59:04;;;;;;;3.63;3.00;;;15.10;99.90;;;;;;5095169;28;20200;-86
2022/08/08 01:01:35;;;;;;;3.80;2.60;;;15.00;99.90;;;;;;5095493;28;20726;-85
2022/08/08 01:04:34;;;;;;;3.10;2.27;;;15.00;99.90;;;;;;5097665;28;20200;-84
2022/08/08 01:07:38;;;;;;;2.67;2.33;;;15.00;99.90;;;;;;5097557;28;20189;-86
2022/08/08 01:10:48;;;;;;;2.90;2.40;;;15.00;99.90;;;;;;5091931;28;20319;-84
2022/08/08 01:13:48;;;;;;;3.00;2.70;;;14.90;99.90;;;;;;5097869;28;20200;-85
2022/08/08 01:16:48;;;;;;;2.57;2.07;;;14.90;99.90;;;;;;5092595;28;20205;-85
2022/08/08 01:20:04;;;;;;;3.27;2.30;;;14.90;99.90;;;;;;5066257;28;20193;-85
2022/08/08 01:23:11;;;;;;;2.37;1.80;;;14.90;99.90;;;;;;5091772;28;20233;-88
2022/08/08 01:26:31;;;;;;;4.70;2.57;;;14.80;99.90;;;;;;5090542;28;20250;-86
2022/08/08 01:29:22;;;;;;;2.40;2.07;;;14.80;99.90;;;;;;5050553;28;20284;-84
2022/08/08 01:32:32;;;;;;;3.20;2.50;;;14.80;99.90;;;;;;5091396;28;20207;-83
2022/08/08 01:35:32;;;;;;;2.60;2.40;;;14.70;99.90;;;;;;5093110;28;20227;-84
2022/08/08 01:39:00;;;;;;;3.70;2.70;;;14.80;99.90;;;;;;5083997;28;20229;-92
2022/08/08 01:41:37;;;;;;;2.60;2.40;;;14.70;99.90;;;;;;5081087;28;20240;-92
2022/08/08 01:44:15;;;;;;;2.80;2.37;;;14.70;99.90;;;;;;5094240;28;20208;-91
2022/08/08 01:46:52;;;;;;;2.80;2.30;;;14.60;99.90;;;;;;5100472;28;20185;-93
2022/08/08 01:49:34;;;;;;;3.20;2.30;;;14.60;99.90;;;;;;5099322;28;20232;-94
2022/08/08 01:52:08;;;;;;;2.43;2.17;;;14.60;99.90;;;;;;5097692;28;20213;-91
2022/08/08 01:55:01;;;;;;;3.17;2.47;;;14.50;99.90;;;;;;5098059;28;20192;-91
2022/08/08 01:57:38;;;;;;;2.43;2.23;;;14.50;99.90;;;;;;5099187;28;20283;-93
2022/08/08 02:00:16;;;;;;;2.80;2.40;;;14.50;99.90;;;;;;5099148;28;20279;-92
2022/08/08 02:03:16;;;;;;;2.53;2.30;;;14.50;99.90;;;;;;5100181;28;20213;-93
2022/08/08 02:05:54;;;;;;;3.60;2.80;;;14.50;99.90;;;;;;5084144;28;20215;-92
2022/08/08 02:08:31;;;;;;;2.77;2.40;;;14.40;99.90;;;;;;5076988;28;20197;-84
2022/08/08 02:11:09;;;;;;;4.00;2.90;;;14.40;99.90;;;;;;5076238;28;20227;-86
2022/08/08 02:13:47;;;;;;;3.10;2.80;;;14.40;99.90;;;;;;5092813;28;20227;-86
2022/08/08 02:16:24;;;;;;;3.23;2.40;;;14.40;99.90;;;;;;5096695;28;20227;-87
2022/08/08 02:18:58;;;;;;;3.30;2.60;;;14.40;99.90;;;;;;5097013;28;20276;-89
2022/08/08 02:24:17;;;;;;;2.63;2.30;;;14.30;99.90;;;;;;5096725;28;20230;-88
2022/08/08 02:27:02;;;;;;;2.60;2.40;;;14.30;99.90;;;;;;5097091;28;20267;-92
2022/08/08 02:29:53;;;;;;;4.07;3.20;;;14.30;99.90;;;;;;5096895;28;20290;-88
2022/08/08 02:32:56;;;;;;;3.30;2.50;;;14.30;99.90;;;;;;5095796;28;20200;-86
2022/08/08 02:35:51;;;;;;;3.53;2.70;;;14.20;99.90;;;;;;5095614;28;20265;-84
2022/08/08 02:38:36;;;;;;;3.77;3.37;;;14.20;99.90;;;;;;5095728;28;20189;-86
2022/08/08 02:41:33;;;;;;;3.50;3.13;;;14.20;99.90;;;;;;5095637;28;20216;-86
2022/08/08 02:44:51;;;;;;;3.30;3.00;;;14.20;99.90;;;;;;5096060;28;20196;-85
2022/08/08 02:47:54;;;;;;;4.13;3.33;;;14.10;99.90;;;;;;5095655;28;20201;-85
2022/08/08 02:50:43;;;;;;;3.63;2.97;;;14.10;99.90;;;;;;5096836;28;20200;-91
2022/08/08 02:53:31;;;;;;;3.37;2.93;;;14.10;99.90;;;;;;5078874;28;20201;-86
2022/08/08 02:56:27;;;;;;;3.73;3.37;;;14.10;99.90;;;;;;5076250;28;20196;-89
2022/08/08 02:59:30;;;;;;;5.67;3.33;;;14.10;99.90;;;;;;5085500;28;20279;-88
2022/08/08 03:02:33;;;;;;;3.77;3.40;;;14.10;99.90;;;;;;5096171;28;20900;-84
2022/08/08 03:05:22;;;;;;;4.43;3.50;;;14.10;99.90;;;;;;5076545;28;20280;-87
2022/08/08 03:08:40;;;;;;;4.47;3.40;;;14.10;99.90;;;;;;5085064;28;20224;-85
2022/08/08 03:12:01;;;;;;;3.63;3.17;;;14.10;99.90;;;;;;5096404;28;20225;-87
2022/08/08 03:14:48;;;;;;;4.00;3.33;;;14.00;99.90;;;;;;5102610;28;20188;-87
2022/08/08 03:17:20;;;;;;;4.70;3.53;;;14.10;99.90;;;;;;5106120;28;20204;-86
2022/08/08 03:20:00;;;;;;;2.77;2.43;;;14.10;99.90;;;;;;5112654;28;20173;-86
2022/08/08 03:22:27;;;;;;;3.00;2.77;;;14.00;99.90;;;;;;5114117;28;20331;-89
2022/08/08 03:24:55;;;;;;;5.83;3.27;;;14.00;99.90;;;;;;5112498;28;20196;-87
2022/08/08 03:27:29;;;;;;;4.47;3.60;;;14.00;99.90;;;;;;5112948;28;20253;-86
2022/08/08 03:30:02;;;;;;;3.77;3.07;;;14.00;99.90;;;;;;5112343;28;20193;-86
2022/08/08 03:35:14;;;;;;;4.27;2.70;;;14.00;99.90;;;;;;5073977;28;20180;-89
2022/08/08 03:37:41;;;;;;;3.50;2.77;;;14.00;99.90;;;;;;5074492;28;20217;-89
2022/08/08 03:40:10;;;;;;;4.30;3.00;;;14.00;99.90;;;;;;5074923;28;20227;-84
2022/08/08 03:42:37;;;;;;;2.83;2.57;;;14.00;99.90;;;;;;5089171;28;20311;-84
2022/08/08 03:45:14;;;;;;;4.40;2.60;;;14.00;99.90;;;;;;5094359;28;20348;-89
2022/08/08 03:47:41;;;;;;;3.70;3.17;;;13.90;99.90;;;;;;5084045;28;20213;-86
2022/08/08 03:50:16;;;;;;;3.00;2.60;;;14.00;99.90;;;;;;5074282;28;20193;-85
2022/08/08 03:52:43;;;;;;;3.33;3.00;;;13.90;99.90;;;;;;5085232;28;20208;-83
2022/08/08 03:55:13;;;;;;;3.57;2.60;;;13.90;99.90;;;;;;5094543;28;20283;-85
2022/08/08 03:57:45;;;;;;;2.67;2.37;;;13.90;99.90;;;;;;5094523;28;20183;-84
2022/08/08 04:00:14;;;;;;;3.70;2.80;;;13.90;99.90;;;;;;5094127;28;20338;-84
2022/08/08 04:02:43;;;;;;;3.50;3.20;;;13.90;99.90;;;;;;5093108;28;20636;-85
2022/08/08 04:05:11;;;;;;;4.53;3.93;;;13.80;99.90;;;;;;5093897;28;20260;-86
2022/08/08 04:07:38;;;;;;;2.97;2.67;;;13.90;99.90;;;;;;5094197;28;20200;-84
2022/08/08 04:10:07;;;;;;;3.13;2.83;;;13.80;99.90;;;;;;5093744;28;20231;-87
2022/08/08 04:12:36;;;;;;;3.70;3.17;;;13.90;99.90;;;;;;5094064;28;20235;-84
2022/08/08 04:15:04;;;;;;;3.13;2.90;;;13.90;99.90;;;;;;5094298;28;20196;-87
2022/08/08 04:17:31;;;;;;;2.70;2.50;;;13.90;99.90;;;;;;5092681;28;20481;-87
2022/08/08 04:19:58;;;;;;;4.13;2.90;;;13.90;99.90;;;;;;5073831;28;20284;-83
2022/08/08 04:22:27;;;;;;;4.10;3.20;;;13.90;99.90;;;;;;5074001;28;20224;-86
2022/08/08 04:24:54;;;;;;;4.57;2.90;;;13.90;99.90;;;;;;5074192;28;20219;-86
2022/08/08 04:27:22;;;;;;;3.90;3.13;;;14.00;99.90;;;;;;5090191;28;20676;-85
2022/08/08 04:29:50;;;;;;;3.73;3.00;;;14.00;99.90;;;;;;5094829;28;20196;-85
2022/08/08 04:32:18;;;;;;;3.97;3.03;;;14.00;99.90;;;;;;5094207;28;20502;-85
2022/08/08 04:34:45;;;;;;;5.63;3.73;;;14.10;99.90;;;;;;5093402;28;20224;-84
2022/08/08 04:37:12;;;;;;;3.63;3.33;;;14.10;99.90;;;;;;5094438;28;20519;-84
2022/08/08 04:39:39;;;;;;;4.60;3.40;;;14.20;99.90;;;;;;5094040;28;20257;-83
2022/08/08 04:42:07;;;;;;;3.67;3.23;;;14.20;99.90;;;;;;5092208;28;20744;-84
2022/08/08 04:44:34;;;;;;;4.80;3.50;;;14.30;99.90;;;;;;5093121;28;20224;-86
2022/08/08 04:47:03;;;;;;;3.10;2.80;;;14.30;99.90;;;;;;5093624;28;20212;-84
2022/08/08 04:49:30;;;;;;;3.20;2.90;;;14.30;99.90;;;;;;5092497;28;20908;-85
2022/08/08 04:51:57;;;;;;;4.63;3.30;;;14.40;99.90;;;;;;5092386;28;20204;-83
2022/08/08 04:54:24;;;;;;;3.60;2.83;;;14.40;99.90;;;;;;5093436;28;20196;-86
2022/08/08 04:56:51;;;;;;;3.20;2.73;;;14.40;99.90;;;;;;5092451;28;20562;-86
2022/08/08 04:59:18;;;;;;;5.53;3.30;;;14.50;99.90;;;;;;5094026;28;20188;-91
2022/08/08 05:01:45;;;;;;;4.53;3.40;;;14.50;99.90;;;;;;5094307;28;20258;-87
2022/08/08 05:04:14;;;;;;;3.93;3.50;;;14.60;99.90;;;;;;5095117;28;20205;-90
2022/08/08 05:06:41;;;;;;;3.67;3.30;;;14.70;99.90;;;;;;5094631;28;20231;-84
2022/08/08 05:09:07;;;;;;;4.93;3.33;;;14.70;99.90;;;;;;5094114;28;20201;-89
2022/08/08 05:11:34;;;;;;;5.37;3.30;;;14.80;99.90;;;;;;5093103;28;20232;-89
2022/08/08 05:14:01;;;;;;;4.00;3.37;;;14.90;99.90;;;;;;5092858;28;20284;-84
2022/08/08 05:16:29;;;;;;;3.73;3.33;;;14.90;99.90;;;;;;5092767;28;20204;-85
2022/08/08 05:18:56;;;;;;;3.30;3.00;;;15.00;99.90;;;;;;5092473;28;20776;-85
2022/08/08 05:21:24;;;;;;;3.93;3.53;;;15.00;99.90;;;;;;5093639;28;20196;-86
2022/08/08 05:23:53;;;;;;;3.83;3.43;;;15.10;99.90;;;;;;5092875;28;20612;-83
2022/08/08 05:26:20;;;;;;;3.37;3.07;;;15.20;99.90;;;;;;5082189;28;20217;-83
2022/08/08 05:28:47;;;;;;;4.10;3.67;;;15.20;99.90;;;;;;5074122;28;20211;-84
2022/08/08 05:31:14;;;;;;;3.83;3.13;;;15.30;99.90;;;;;;5093236;28;20582;-85
2022/08/08 05:33:41;;;;;;;3.37;3.07;;;15.30;99.90;;;;;;5096455;28;20662;-84
2022/08/08 05:36:10;;;;;;;3.10;2.80;;;15.30;99.90;;;;;;5096249;28;20521;-85
2022/08/08 05:38:46;;;;;;;2.90;2.60;;;15.30;99.90;;;;;;5096012;28;20197;-84
2022/08/08 05:41:16;;;;;;;3.07;2.77;;;15.40;99.90;;;;;;5096114;28;20207;-84
2022/08/08 05:43:46;;;;;;;4.00;3.60;;;15.40;99.90;;;;;;5095656;28;20745;-85
2022/08/08 05:46:15;;;;;;;5.10;3.67;;;15.40;99.90;;;;;;5096099;28;20653;-85
2022/08/08 05:48:42;;;;;;;3.37;3.03;;;15.40;99.90;;;;;;5096121;28;20209;-87
2022/08/08 05:51:10;;;;;;;5.23;3.67;;;15.50;99.90;;;;;;5096204;28;20199;-85
2022/08/08 05:53:38;;;;;;;6.20;3.60;;;15.50;99.90;;;;;;5096904;28;20510;-84
2022/08/08 05:56:08;;;;;;;4.23;3.43;;;15.60;99.90;;;;;;5096005;28;20209;-84
2022/08/08 05:58:36;;;;;;;5.00;3.30;;;15.60;99.90;;;;;;5097086;28;20204;-88
2022/08/08 06:01:03;;;;;;;7.93;3.30;;;15.80;99.90;;;;;;5097244;28;20477;-89
2022/08/08 06:03:31;;;;;;;5.32;3.42;;;15.90;99.90;;;;;;5097274;28;20237;-89
2022/08/08 06:06:00;;;;;;;3.58;3.22;;;16.00;99.90;;;;;;5097238;28;20193;-86
2022/08/08 06:08:28;;;;;;;3.17;2.95;;;16.20;99.90;;;;;;5096845;28;20318;-89
2022/08/08 06:10:58;;;;;;;4.85;3.50;;;16.50;99.90;;;;;;5082858;28;20251;-86
2022/08/08 06:13:27;;;;;;;3.80;2.53;;;16.80;99.90;;;;;;5075553;28;20225;-85
2022/08/08 06:15:55;;;;;;;4.35;2.92;;;17.00;99.90;;;;;;5075736;28;20280;-83
2022/08/08 06:18:24;;;;;;;3.65;3.10;;;17.30;99.90;;;;;;5076208;28;20205;-84
2022/08/08 06:20:53;;;;;;;6.43;3.50;;;17.70;99.90;;;;;;5075007;28;20208;-86
2022/08/08 06:23:20;;;;;;;5.32;2.95;;;17.90;99.90;;;;;;5089529;28;20657;-85
2022/08/08 06:25:55;;;;;;;7.22;2.92;;;18.20;99.90;;;;;;5095247;28;20209;-85
2022/08/08 06:28:30;;;;;;;5.35;2.83;;;18.60;99.90;;;;;;5094676;28;20207;-84
2022/08/08 06:31:04;;;;;;;3.70;2.28;;;18.80;99.90;;;;;;5094290;28;20230;-85
2022/08/08 06:33:40;;;;;;;4.35;2.70;;;19.00;99.90;;;;;;5094366;28;20189;-85
2022/08/08 06:36:09;;;;;;;6.38;2.60;;;19.30;99.90;;;;;;5095118;28;20232;-83
2022/08/08 06:38:44;;;;;;;5.95;2.55;;;19.60;99.90;;;;;;5091637;28;20560;-84
2022/08/08 06:41:16;;;;;;;11.93;2.42;;;19.90;99.90;;;;;;5093074;28;20200;-85
2022/08/08 06:43:47;;;;;;;5.25;2.10;;;20.10;99.90;;;;;;5091651;28;20569;-85
2022/08/08 06:46:15;;;;;;;1.90;1.33;;;20.30;91.90;;;;;;5094692;28;20475;-85
2022/08/08 06:48:42;;;;;;;4.72;2.00;;;20.40;74.10;;;;;;5090760;28;20287;-86
2022/08/08 06:51:11;;;;;;;9.15;2.33;;;20.50;63.30;;;;;;5089987;28;20208;-85
2022/08/08 06:53:38;;;;;;;4.40;1.98;;;20.40;32.60;;;;;;5081213;28;20201;-84
2022/08/08 06:56:07;;;;;;;5.63;1.80;;;20.30;43.90;;;;;;5092328;28;20215;-83
2022/08/08 06:58:35;;;;;;;2.67;1.67;;;20.30;24.90;;;;;;5089294;28;20204;-86
2022/08/08 07:01:07;;;;;;;4.80;2.05;;;20.40;53.30;;;;;;5092991;28;20276;-82
2022/08/08 07:03:42;;;;;;;3.83;1.80;;;20.40;22.70;;;;;;5094364;28;20278;-83
2022/08/08 07:06:10;;;;;;;2.75;1.65;;;20.40;1.00;;;;;;5085458;28;20211;-81
2022/08/08 07:08:38;;;;;;;4.03;1.83;;;20.40;6.90;;;;;;5072729;28;20225;-82
2022/08/08 07:11:07;;;;;;;3.80;1.50;;;20.60;28.50;;;;;;5073457;28;20256;-82
2022/08/08 07:13:38;;;;;;;5.10;2.00;;;20.90;1.00;;;;;;5072980;28;20201;-81
2022/08/08 07:16:13;;;;;;;2.65;1.45;;;21.00;1.00;;;;;;5072799;28;20193;-82
2022/08/08 07:18:50;;;;;;;2.35;1.50;;;21.10;1.00;;;;;;5085030;28;20219;-85
2022/08/08 07:21:19;;;;;;;3.47;1.70;;;21.10;1.00;;;;;;5093417;28;20224;-84
2022/08/08 07:23:53;;;;;;;3.50;1.63;;;21.20;1.00;;;;;;5084505;28;20212;-83
2022/08/08 07:26:24;;;;;;;3.85;1.67;;;21.50;1.00;;;;;;5091946;28;20628;-82
2022/08/08 07:28:52;;;;;;;3.85;1.58;;;21.60;1.00;;;;;;5081206;28;20290;-82
2022/08/08 07:31:21;;;;;;;5.10;1.42;;;21.80;1.00;;;;;;5091070;28;20201;-84
2022/08/08 07:33:49;;;;;;;2.38;1.23;;;21.90;99.90;;;;;;5094680;28;20278;-83
2022/08/08 07:36:17;;;;;;;3.70;1.23;;;21.90;99.90;;;;;;5094921;28;20212;-83
2022/08/08 07:38:48;;;;;;;2.55;1.50;;;21.90;99.90;;;;;;5094214;28;20200;-83
2022/08/08 07:41:18;;;;;;;2.78;1.48;;;21.70;1.00;;;;;;5094249;28;20204;-84
2022/08/08 07:43:45;;;;;;;2.85;1.40;;;21.80;99.90;;;;;;5093067;28;20220;-84
2022/08/08 07:46:12;;;;;;;2.20;1.27;;;21.90;99.90;;;;;;5093436;28;20207;-83
2022/08/08 07:48:40;;;;;;;2.03;1.30;;;22.30;1.00;;;;;;5093836;28;20200;-81
2022/08/08 07:51:09;;;;;;;2.83;1.55;;;22.50;1.00;;;;;;5093334;28;20206;-83
2022/08/08 07:53:43;;;;;;;4.30;1.48;;;22.90;99.90;;;;;;5075522;28;20295;-84
2022/08/08 07:56:13;;;;;;;3.25;1.20;;;23.20;1.00;;;;;;5073273;28;20197;-84
2022/08/08 07:58:42;;;;;;;1.95;1.10;;;23.60;44.10;;;;;;5073378;28;20503;-83
2022/08/08 08:01:12;;;;;;;3.22;1.20;;;24.00;16.50;;;;;;5073400;28;20193;-84
2022/08/08 08:03:50;;;;;;;4.65;1.17;;;24.30;1.00;;;;;;5092673;28;20220;-85
2022/08/08 08:06:19;;;;;;;5.75;1.55;;;24.70;1.00;;;;;;5091730;28;20580;-84
2022/08/08 08:08:53;;;;;;;1.60;1.20;;;25.20;1.00;;;;;;5092829;28;20203;-84
2022/08/08 08:11:22;;;;;;;2.40;1.10;;;25.50;99.90;;;;;;5092659;28;20233;-84
2022/08/08 08:13:55;;;;;;;3.13;1.40;;;25.70;75.90;;;;;;5091847;28;20291;-81
2022/08/08 08:16:24;;;;;;;4.28;1.75;;;26.10;1.00;;;;;;5092994;28;20192;-81
2022/08/08 08:18:56;;;;;;;5.68;1.55;;;26.10;1.00;;;;;;5091997;28;20198;-83
2022/08/08 08:21:25;;;;;;;2.53;1.30;;;25.80;1.00;;;;;;5087494;28;20193;-82
2022/08/08 08:23:52;;;;;;;3.22;1.30;;;25.50;1.00;;;;;;5071976;28;20229;-83
2022/08/08 08:26:20;;;;;;;1.90;1.20;;;25.00;1.00;;;;;;5082812;28;20214;-82
2022/08/08 08:28:47;;;;;;;3.85;1.45;;;24.50;99.90;;;;;;5092255;28;20201;-83
2022/08/08 08:31:14;;;;;;;2.90;1.25;;;24.10;99.90;;;;;;5092501;28;20197;-82
2022/08/08 08:33:41;;;;;;;5.20;2.00;;;23.80;1.00;;;;;;5092186;28;20224;-80
2022/08/08 08:36:10;;;;;;;3.20;1.67;;;23.40;1.00;;;;;;5072985;28;20229;-84
2022/08/08 08:38:37;;;;;;;2.47;1.27;;;23.10;99.90;;;;;;5072392;28;20197;-84
2022/08/08 08:41:05;;;;;;;2.95;1.38;;;22.80;1.00;;;;;;5071859;28;20223;-83
2022/08/08 08:43:33;;;;;;;4.55;1.30;;;22.60;99.90;;;;;;5072798;28;20252;-86
2022/08/08 08:46:01;;;;;;;2.42;1.33;;;22.50;99.90;;;;;;5073744;28;20213;-85
2022/08/08 08:48:30;;;;;;;4.35;1.48;;;22.30;1.00;;;;;;5072733;28;20197;-85
2022/08/08 08:51:00;;;;;;;4.53;1.40;;;22.50;1.00;;;;;;5082273;28;20207;-85
2022/08/08 08:53:35;;;;;;;2.70;1.30;;;23.10;91.10;;;;;;5092968;28;20184;-83
2022/08/08 08:56:03;;;;;;;3.47;1.48;;;23.80;1.00;;;;;;5091561;28;20189;-83
2022/08/08 08:58:34;;;;;;;3.20;1.50;;;24.30;99.90;;;;;;5091894;28;20204;-85
2022/08/08 09:01:04;;;;;;;4.43;1.40;;;24.40;1.00;;;;;;5091607;28;20258;-81
2022/08/08 09:03:31;;;;;;;4.70;1.40;;;24.30;60.90;;;;;;5095112;28;20222;-86
2022/08/08 09:05:58;;;;;;;4.60;1.70;;;23.90;99.90;;;;;;5096334;28;20204;-82
2022/08/08 09:08:27;;;;;;;1.90;1.20;;;23.90;99.90;;;;;;5095250;28;20196;-82
2022/08/08 09:10:56;;;;;;;2.25;1.20;;;24.00;99.90;;;;;;5095873;28;20224;-81
2022/08/08 09:13:23;;;;;;;3.17;1.60;;;23.90;99.90;;;;;;5094460;28;20207;-82
2022/08/08 09:15:50;;;;;;;2.28;1.25;;;23.80;99.90;;;;;;5086644;28;20201;-84
2022/08/08 09:18:18;;;;;;;2.90;1.42;;;23.60;99.90;;;;;;5075637;28;20196;-84
2022/08/08 09:20:45;;;;;;;2.13;1.20;;;23.40;1.00;;;;;;5075990;28;20553;-84
2022/08/08 09:23:14;;;;;;;4.28;1.60;;;23.20;1.00;;;;;;5074416;28;20678;-84
2022/08/08 09:25:50;;;;;;;3.45;1.50;;;23.00;1.00;;;;;;5089926;28;20204;-87
2022/08/08 09:28:19;;;;;;;4.75;1.33;;;23.20;99.90;;;;;;5096805;28;20192;-83
2022/08/08 09:30:51;;;;;;;4.85;1.55;;;23.40;1.00;;;;;;5095579;28;20271;-83
2022/08/08 09:33:19;;;;;;;2.33;1.30;;;23.40;99.90;;;;;;5094559;28;20593;-81
2022/08/08 09:35:47;;;;;;;2.85;1.25;;;23.30;99.90;;;;;;5083146;28;20589;-84
2022/08/08 09:38:29;;;;;;;4.07;1.42;;;23.20;1.00;;;;;;5094865;28;20199;-85
2022/08/08 09:41:02;;;;;;;2.70;1.70;;;23.10;99.90;;;;;;5095333;28;20204;-80
2022/08/08 09:43:34;;;;;;;2.90;1.25;;;23.50;99.90;;;;;;5095499;28;20231;-82
2022/08/08 09:46:02;;;;;;;3.80;1.13;;;24.00;99.90;;;;;;5095183;28;20476;-82
2022/08/08 09:48:31;;;;;;;2.90;1.20;;;24.30;1.00;;;;;;5094951;28;20209;-84
2022/08/08 09:50:58;;;;;;;1.48;0.90;;;24.70;1.00;;;;;;5094523;28;20254;-81
2022/08/08 09:53:34;;;;;;;4.93;1.70;;;25.10;1.00;;;;;;5094931;28;20192;-85
2022/08/08 09:56:03;;;;;;;2.10;1.10;;;25.40;1.00;;;;;;5094606;28;20238;-82
2022/08/08 09:58:38;;;;;;;2.22;1.30;;;25.60;1.00;;;;;;5082585;28;20209;-81
2022/08/08 10:01:09;;;;;;;2.95;1.38;;;25.60;1.00;;;;;;5073724;28;20520;-81
2022/08/08 10:03:37;;;;;;;1.95;0.88;;;25.50;1.00;;;;;;5080256;28;20212;-83
2022/08/08 10:06:14;;;;;;;2.00;1.00;;;25.10;1.00;;;;;;5094940;28;20624;-82
2022/08/08 10:08:45;;;;;;;2.63;1.00;;;24.80;1.00;;;;;;5095271;28;20239;-85
2022/08/08 10:11:12;;;;;;;4.10;1.35;;;24.70;1.00;;;;;;5094999;28;20239;-82
2022/08/08 10:13:52;;;;;;;2.00;1.23;;;24.50;1.00;;;;;;5093800;28;20570;-82
2022/08/08 10:16:19;;;;;;;3.88;1.30;;;24.40;1.00;;;;;;5095392;28;20235;-84
2022/08/08 10:18:46;;;;;;;5.15;1.63;;;24.40;1.00;;;;;;5101206;28;20201;-83
2022/08/08 10:21:16;;;;;;;2.97;1.42;;;24.60;1.00;;;;;;5103655;28;20188;-81
2022/08/08 10:23:45;;;;;;;4.03;1.30;;;24.60;1.00;;;;;;5099996;28;20232;-85
2022/08/08 10:26:18;;;;;;;2.95;1.05;;;24.70;1.00;;;;;;5099495;28;20232;-86
2022/08/08 10:28:55;;;;;;;3.00;1.15;;;24.90;1.00;;;;;;5099594;28;20243;-86
2022/08/08 10:34:13;;;;;;;3.40;1.50;;;25.30;1.00;;;;;;5098303;28;20200;-88
2022/08/08 10:36:41;;;;;;;2.30;0.95;;;25.60;1.00;;;;;;5096373;28;20212;-92
2022/08/08 10:39:10;;;;;;;2.88;0.90;;;25.90;1.00;;;;;;5095554;28;20205;-82
2022/08/08 10:41:37;;;;;;;3.35;0.90;;;25.90;99.90;;;;;;5082574;28;20207;-86
2022/08/08 10:44:11;;;;;;;1.95;1.10;;;26.00;99.90;;;;;;5080895;28;20217;-88
2022/08/08 10:46:38;;;;;;;2.30;1.10;;;26.20;99.90;;;;;;5095779;28;20197;-85
2022/08/08 10:49:05;;;;;;;1.52;0.70;;;26.10;99.90;;;;;;5094486;28;20211;-80
2022/08/08 10:51:37;;;;;;;1.52;0.90;;;25.70;99.90;;;;;;5095161;28;20482;-83
2022/08/08 10:54:04;;;;;;;3.40;0.88;;;25.50;99.90;;;;;;5094594;28;20181;-81
2022/08/08 10:56:34;;;;;;;7.07;0.98;;;25.30;99.90;;;;;;5095217;28;20222;-83
2022/08/08 10:59:02;;;;;;;2.47;1.10;;;25.10;99.90;;;;;;5095114;28;20203;-86
2022/08/08 11:01:31;;;;;;;2.45;0.88;;;24.90;99.90;;;;;;5092726;28;20646;-80
2022/08/08 11:04:00;;;;;;;2.10;0.85;;;24.90;1.00;;;;;;5076493;28;20668;-79
2022/08/08 11:06:30;;;;;;;2.65;1.33;;;24.50;1.00;;;;;;5073628;28;20197;-86
2022/08/08 11:09:01;;;;;;;1.42;0.93;;;24.50;1.00;;;;;;5074203;28;20493;-87
2022/08/08 11:11:37;;;;;;;1.92;1.00;;;24.40;1.00;;;;;;5081721;28;20274;-83
2022/08/08 11:14:06;;;;;;;1.40;0.80;;;24.30;1.00;;;;;;5086150;28;20213;-87
2022/08/08 11:16:41;;;;;;;1.00;0.75;;;24.30;1.00;;;;;;5091668;28;20630;-83
2022/08/08 11:19:08;;;;;;;3.60;1.05;;;24.20;1.00;;;;;;5081557;28;20330;-88
2022/08/08 11:21:40;;;;;;;3.63;1.30;;;24.10;1.00;;;;;;5082192;28;20290;-85
2022/08/08 11:24:08;;;;;;;3.13;1.42;;;23.90;1.00;;;;;;5073781;28;20538;-83
2022/08/08 11:26:40;;;;;;;1.77;0.85;;;23.80;1.00;;;;;;5089563;28;20291;-86
2022/08/08 11:29:16;;;;;;;1.70;1.20;;;23.70;1.00;;;;;;5094831;28;20204;-83
2022/08/08 11:31:48;;;;;;;3.38;1.55;;;23.70;1.00;;;;;;5095071;28;20188;-87
2022/08/08 11:34:15;;;;;;;2.67;1.30;;;23.70;1.00;;;;;;5094509;28;20593;-84
2022/08/08 11:36:43;;;;;;;1.75;1.10;;;23.70;1.00;;;;;;5094476;28;20364;-83
2022/08/08 11:39:11;;;;;;;3.53;1.25;;;23.70;1.00;;;;;;5095000;28;20200;-85
2022/08/08 11:41:39;;;;;;;1.67;0.70;;;23.60;1.00;;;;;;5084481;28;20235;-84
2022/08/08 11:44:06;;;;;;;1.45;0.90;;;23.60;1.00;;;;;;5074434;28;20217;-87
2022/08/08 11:46:34;;;;;;;3.83;1.00;;;23.70;1.00;;;;;;5073633;28;20208;-89
2022/08/08 11:49:07;;;;;;;2.08;1.00;;;23.70;1.00;;;;;;5093342;28;20211;-84
2022/08/08 11:51:35;;;;;;;1.92;1.20;;;23.80;1.00;;;;;;5094343;28;20219;-91
2022/08/08 11:54:02;;;;;;;1.67;1.13;;;23.80;1.00;;;;;;5093567;28;20197;-88
2022/08/08 11:56:33;;;;;;;4.18;1.30;;;23.70;1.00;;;;;;5094117;28;20189;-85
2022/08/08 11:59:06;;;;;;;2.60;1.20;;;23.80;1.00;;;;;;5094536;28;20207;-87
2022/08/08 12:01:33;;;;;;;1.95;1.13;;;24.10;16.90;;;;;;5094802;28;20201;-87
2022/08/08 12:04:02;;;;;;;2.60;1.13;;;24.20;1.00;;;;;;5094354;28;20219;-86
2022/08/08 12:06:31;;;;;;;1.77;0.95;;;24.40;1.00;;;;;;5094253;28;20196;-89
2022/08/08 12:09:06;;;;;;;1.85;1.00;;;24.40;1.00;;;;;;5094636;28;20199;-86
2022/08/08 12:11:39;;;;;;;2.22;1.10;;;24.50;1.00;;;;;;5093845;28;20228;-86
2022/08/08 12:14:06;;;;;;;5.32;1.25;;;24.30;1.00;;;;;;5095037;28;20188;-87
2022/08/08 12:16:33;;;;;;;2.35;1.30;;;24.20;1.00;;;;;;5076482;28;20498;-88
2022/08/08 12:19:02;;;;;;;2.75;1.23;;;24.10;1.00;;;;;;5074526;28;20189;-86
2022/08/08 12:21:33;;;;;;;3.25;1.10;;;24.10;1.00;;;;;;5074696;28;20505;-87
2022/08/08 12:24:06;;;;;;;3.90;1.02;;;24.10;1.00;;;;;;5092609;28;20705;-87
2022/08/08 12:26:38;;;;;;;3.03;1.02;;;24.10;1.00;;;;;;5093632;28;20204;-88
2022/08/08 12:29:23;;;;;;;1.60;0.98;;;24.00;1.00;;;;;;5093706;28;20189;-84
2022/08/08 12:32:05;;;;;;;1.42;0.90;;;23.90;1.00;;;;;;5092848;28;20867;-83
2022/08/08 12:34:37;;;;;;;1.20;1.10;;;23.90;1.00;;;;;;5092686;28;20599;-83
2022/08/08 12:37:07;;;;;;;3.58;1.05;;;23.90;1.00;;;;;;5093720;28;20249;-86
2022/08/08 12:39:34;;;;;;;2.55;1.15;;;24.00;1.00;;;;;;5096930;28;20214;-85
2022/08/08 12:42:01;;;;;;;2.75;0.82;;;24.10;1.00;;;;;;5097515;28;20623;-86
2022/08/08 12:44:30;;;;;;;2.30;0.75;;;24.40;1.00;;;;;;5098141;28;20235;-86
2022/08/08 12:46:58;;;;;;;1.67;0.80;;;24.40;1.00;;;;;;5097164;28;20188;-84
2022/08/08 12:49:29;;;;;;;1.23;0.70;;;24.40;1.00;;;;;;5097238;28;20303;-83
2022/08/08 12:51:57;;;;;;;2.40;0.98;;;24.40;1.00;;;;;;5097799;28;20280;-87
2022/08/08 12:54:27;;;;;;;2.00;0.98;;;24.50;1.00;;;;;;5096835;28;20588;-85
2022/08/08 12:56:54;;;;;;;1.48;0.82;;;24.40;1.00;;;;;;5097424;28;20210;-85
2022/08/08 12:59:23;;;;;;;1.85;1.00;;;24.40;1.00;;;;;;5097501;28;20309;-88
2022/08/08 13:01:52;;;;;;;3.55;1.15;;;24.30;1.00;;;;;;5096104;28;20207;-87
2022/08/08 13:04:20;;;;;;;2.42;1.20;;;24.20;1.00;;;;;;5076361;28;20304;-83
2022/08/08 13:06:55;;;;;;;1.40;1.10;;;24.00;1.00;;;;;;5076139;28;20608;-88
2022/08/08 13:09:38;;;;;;;3.25;1.00;;;24.00;1.00;;;;;;5076274;28;20196;-83
2022/08/08 13:12:13;;;;;;;2.30;1.27;;;23.90;1.00;;;;;;5089012;28;20644;-85
2022/08/08 13:14:45;;;;;;;1.27;0.90;;;23.80;1.00;;;;;;5096754;28;20223;-85
2022/08/08 13:17:12;;;;;;;2.72;1.00;;;23.80;1.00;;;;;;5095992;28;20266;-83
2022/08/08 13:19:39;;;;;;;1.52;1.08;;;23.70;1.00;;;;;;5096348;28;20593;-82
2022/08/08 13:22:07;;;;;;;1.35;1.20;;;23.60;1.00;;;;;;5095716;28;20196;-83
2022/08/08 13:24:39;;;;;;;2.88;1.88;;;23.50;1.00;;;;;;5096228;28;20303;-84
2022/08/08 13:27:07;;;;;;;2.20;1.33;;;23.40;1.00;;;;;;5088505;28;20356;-85
2022/08/08 13:29:36;;;;;;;1.80;1.00;;;23.30;1.00;;;;;;5076251;28;20186;-88
2022/08/08 13:32:04;;;;;;;2.60;1.30;;;23.20;36.00;;;;;;5075572;28;20198;-86
2022/08/08 13:34:37;;;;;;;2.05;1.10;;;23.20;99.90;;;;;;5091881;28;20227;-84